createdAt,value
2019-04-16T00:01:03.154Z,12.60
2019-04-16T00:03:55.565Z,12.20
2019-04-16T00:07:06.565Z,11.60
2019-04-16T00:10:08.458Z,12.27
2019-04-16T00:13:13.994Z,13.00
2019-04-16T00:16:03.415Z,12.27
2019-04-16T00:18:57.977Z,11.93
2019-04-16T00:22:00.347Z,11.60
2019-04-16T00:24:52.128Z,12.57
2019-04-16T00:27:22.275Z,12.77
2019-04-16T00:30:12.710Z,12.67
2019-04-16T00:33:02.345Z,13.30
2019-04-16T00:35:51.803Z,13.57
2019-04-16T00:38:41.294Z,11.87
2019-04-16T00:41:30.732Z,12.07
2019-04-16T00:44:19.859Z,12.40
2019-04-16T00:47:08.836Z,11.97
2019-04-16T00:49:59.349Z,12.20
2019-04-16T00:52:47.788Z,12.90
2019-04-16T00:55:37.197Z,13.47
2019-04-16T00:58:26.038Z,12.80
2019-04-16T01:01:14.933Z,12.73
2019-04-16T01:04:04.315Z,12.23
2019-04-16T01:06:52.778Z,14.20
2019-04-16T01:09:42.226Z,12.30
2019-04-16T01:12:31.641Z,12.97
2019-04-16T01:15:20.502Z,12.43
2019-04-16T01:18:09.327Z,12.00
2019-04-16T01:20:59.027Z,13.10
2019-04-16T01:23:49.331Z,13.83
2019-04-16T01:26:38.358Z,13.73
2019-04-16T01:29:27.937Z,12.97
2019-04-16T01:32:34.739Z,14.20
2019-04-16T01:35:45.551Z,13.00
2019-04-16T01:38:39.450Z,13.63
2019-04-16T01:41:28.759Z,13.43
2019-04-16T01:44:17.826Z,13.50
2019-04-16T01:47:07.060Z,14.30
2019-04-16T01:49:56.447Z,13.07
2019-04-16T01:52:49.516Z,13.03
2019-04-16T01:55:36.431Z,14.77
2019-04-16T01:58:25.199Z,14.30
2019-04-16T02:01:14.451Z,13.63
2019-04-16T02:04:03.428Z,14.80
2019-04-16T02:06:54.319Z,13.63
2019-04-16T02:09:42.945Z,13.80
2019-04-16T02:12:32.261Z,13.87
2019-04-16T02:15:21.947Z,13.40
2019-04-16T02:18:11.983Z,13.90
2019-04-16T02:21:01.862Z,12.73
2019-04-16T02:23:51.178Z,13.47
2019-04-16T02:26:40.129Z,13.37
2019-04-16T02:29:30.488Z,14.60
2019-04-16T02:32:19.555Z,15.00
2019-04-16T02:35:08.730Z,13.97
2019-04-16T02:37:57.596Z,14.03
2019-04-16T02:40:51.633Z,13.83
2019-04-16T02:43:41.024Z,13.50
2019-04-16T02:46:30.893Z,14.33
2019-04-16T02:49:23.182Z,13.93
2019-04-16T02:52:32.924Z,14.23
2019-04-16T02:55:42.619Z,14.10
2019-04-16T02:58:49.322Z,15.13
2019-04-16T03:01:49.347Z,13.80
2019-04-16T03:04:46.098Z,14.13
2019-04-16T03:07:34.894Z,15.30
2019-04-16T03:10:24.068Z,13.43
2019-04-16T03:13:13.710Z,13.60
2019-04-16T03:16:21.857Z,13.73
2019-04-16T03:19:18.612Z,13.47
2019-04-16T03:22:04.562Z,14.40
2019-04-16T03:24:53.493Z,13.33
2019-04-16T03:27:42.447Z,14.20
2019-04-16T03:30:40.296Z,13.10
2019-04-16T03:33:21.655Z,14.50
2019-04-16T03:36:10.862Z,14.10
2019-04-16T03:38:59.914Z,14.63
2019-04-16T03:41:48.996Z,13.70
2019-04-16T03:44:38.425Z,15.30
2019-04-16T03:47:27.320Z,15.07
2019-04-16T03:50:16.649Z,13.80
2019-04-16T03:53:05.636Z,14.60
2019-04-16T03:55:58.225Z,13.30
2019-04-16T03:58:45.254Z,14.17
2019-04-16T04:01:35.757Z,14.20
2019-04-16T04:04:28.932Z,14.80
2019-04-16T04:07:15.335Z,14.47
2019-04-16T04:10:04.539Z,14.20
2019-04-16T04:12:54.507Z,14.07
2019-04-16T04:15:43.958Z,14.80
2019-04-16T04:18:32.881Z,14.77
2019-04-16T04:21:22.655Z,14.90
2019-04-16T04:24:12.217Z,14.40
2019-04-16T04:27:01.276Z,14.47
2019-04-16T04:29:50.529Z,14.27
2019-04-16T04:32:39.908Z,14.77
2019-04-16T04:35:29.314Z,13.87
2019-04-16T04:38:18.453Z,14.20
2019-04-16T04:41:08.025Z,13.73
2019-04-16T04:43:56.977Z,15.50
2019-04-16T04:46:46.967Z,14.50
2019-04-16T04:49:36.221Z,14.70
2019-04-16T04:52:27.317Z,15.20
2019-04-16T04:55:15.000Z,15.47
2019-04-16T04:58:04.346Z,15.43
2019-04-16T05:00:53.504Z,16.03
2019-04-16T05:04:02.191Z,14.50
2019-04-16T05:06:54.424Z,15.47
2019-04-16T05:09:42.618Z,15.30
2019-04-16T05:12:31.779Z,15.07
2019-04-16T05:15:03.835Z,15.77
2019-04-16T05:17:52.913Z,15.03
2019-04-16T05:20:46.752Z,15.30
2019-04-16T05:23:33.118Z,15.70
2019-04-16T05:26:22.069Z,14.93
2019-04-16T05:29:16.296Z,14.50
2019-04-16T05:32:02.590Z,15.13
2019-04-16T05:34:51.727Z,16.47
2019-04-16T05:37:40.582Z,15.37
2019-04-16T05:40:34.466Z,16.13
2019-04-16T05:43:22.592Z,15.60
2019-04-16T05:46:11.539Z,15.97
2019-04-16T05:49:01.021Z,16.83
2019-04-16T05:51:49.996Z,16.40
2019-04-16T05:55:17.978Z,16.50
2019-04-16T05:58:07.690Z,16.10
2019-04-16T06:01:01.819Z,15.70
2019-04-16T06:03:53.307Z,16.20
2019-04-16T06:06:41.691Z,16.20
2019-04-16T06:09:30.984Z,16.70
2019-04-16T06:12:22.414Z,15.63
2019-04-16T06:15:35.723Z,17.10
2019-04-16T06:18:41.337Z,16.30
2019-04-16T06:22:01.537Z,17.83
2019-04-16T06:25:12.857Z,16.30
2019-04-16T06:28:20.285Z,17.53
2019-04-16T06:31:39.391Z,16.17
2019-04-16T06:34:41.966Z,17.10
2019-04-16T06:37:40.261Z,16.53
2019-04-16T06:40:41.627Z,17.27
2019-04-16T06:43:34.959Z,16.53
2019-04-16T06:46:49.435Z,17.53
2019-04-16T06:49:57.461Z,16.37
2019-04-16T06:53:03.931Z,18.23
2019-04-16T06:56:09.536Z,18.00
2019-04-16T06:59:26.385Z,15.90
2019-04-16T07:02:37.247Z,17.87
2019-04-16T07:05:43.129Z,17.67
2019-04-16T07:08:49.777Z,16.63
2019-04-16T07:11:39.574Z,17.70
2019-04-16T07:14:28.687Z,17.47
2019-04-16T07:17:00.176Z,16.83
2019-04-16T07:19:50.467Z,16.53
2019-04-16T07:22:40.245Z,16.90
2019-04-16T07:25:29.907Z,17.47
2019-04-16T07:28:42.638Z,17.23
2019-04-16T07:31:36.899Z,17.50
2019-04-16T07:34:32.028Z,17.50
2019-04-16T07:37:46.455Z,16.40
2019-04-16T07:40:57.829Z,18.07
2019-04-16T07:43:50.036Z,15.17
2019-04-16T07:47:06.373Z,14.70
2019-04-16T07:50:01.447Z,15.17
2019-04-16T07:53:15.811Z,15.90
2019-04-16T07:56:10.490Z,15.07
2019-04-16T07:59:01.553Z,14.87
2019-04-16T08:01:50.936Z,14.83
2019-04-16T08:04:39.714Z,14.60
2019-04-16T08:07:29.047Z,13.97
2019-04-16T08:10:17.977Z,14.43
2019-04-16T08:12:56.954Z,14.43
2019-04-16T08:15:45.993Z,13.93
2019-04-16T08:18:37.588Z,15.80
2019-04-16T08:21:26.668Z,18.90
2019-04-16T08:24:24.450Z,16.27
2019-04-16T08:27:14.292Z,15.37
2019-04-16T08:30:04.054Z,14.63
2019-04-16T08:32:52.730Z,15.23
2019-04-16T08:35:41.679Z,15.80
2019-04-16T08:38:34.129Z,13.87
2019-04-16T08:41:21.778Z,15.23
2019-04-16T08:44:11.397Z,15.00
2019-04-16T08:47:00.251Z,14.10
2019-04-16T08:49:53.606Z,15.20
2019-04-16T08:52:41.728Z,14.70
2019-04-16T08:55:30.501Z,14.70
2019-04-16T08:58:19.921Z,15.80
2019-04-16T09:01:11.017Z,16.53
2019-04-16T09:04:02.663Z,14.93
2019-04-16T09:06:50.715Z,14.87
2019-04-16T09:09:46.804Z,14.80
2019-04-16T09:12:40.667Z,15.60
2019-04-16T09:15:30.771Z,14.97
2019-04-16T09:18:38.162Z,13.90
2019-04-16T09:21:28.135Z,15.20
2019-04-16T09:24:29.679Z,15.27
2019-04-16T09:27:39.189Z,15.17
2019-04-16T09:30:49.386Z,14.63
2019-04-16T09:33:33.586Z,15.97
2019-04-16T09:36:54.657Z,15.60
2019-04-16T09:40:16.693Z,15.70
2019-04-16T09:43:00.077Z,15.30
2019-04-16T09:45:50.000Z,14.63
2019-04-16T09:48:39.309Z,14.70
2019-04-16T09:51:29.412Z,14.27
2019-04-16T09:54:19.022Z,15.00
2019-04-16T09:57:08.060Z,15.23
2019-04-16T09:59:54.663Z,15.57
2019-04-16T10:02:44.689Z,15.40
2019-04-16T10:05:34.148Z,15.43
2019-04-16T10:08:23.808Z,15.33
2019-04-16T10:11:13.681Z,15.63
2019-04-16T10:14:02.839Z,15.80
2019-04-16T10:16:51.660Z,15.10
2019-04-16T10:19:43.248Z,15.83
2019-04-16T10:22:31.693Z,15.57
2019-04-16T10:25:20.579Z,15.47
2019-04-16T10:28:16.758Z,15.30
2019-04-16T10:31:05.850Z,14.77
2019-04-16T10:33:54.742Z,15.87
2019-04-16T10:36:43.817Z,14.60
2019-04-16T10:39:58.171Z,15.97
2019-04-16T10:43:00.400Z,15.73
2019-04-16T10:46:09.766Z,15.80
2019-04-16T10:49:13.009Z,16.10
2019-04-16T10:52:22.546Z,16.90
2019-04-16T10:55:36.853Z,14.73
2019-04-16T10:58:44.264Z,15.80
2019-04-16T11:01:46.882Z,13.70
2019-04-16T11:05:10.515Z,14.50
2019-04-16T11:07:59.965Z,12.90
2019-04-16T11:10:48.965Z,14.63
2019-04-16T11:13:58.327Z,12.60
2019-04-16T11:16:36.083Z,14.00
2019-04-16T11:19:24.994Z,13.97
2019-04-16T11:22:13.848Z,15.60
2019-04-16T11:25:03.149Z,13.30
2019-04-16T11:27:52.554Z,14.53
2019-04-16T11:30:43.856Z,13.57
2019-04-16T11:33:32.343Z,14.47
2019-04-16T11:36:21.235Z,13.60
2019-04-16T11:39:11.754Z,14.30
2019-04-16T11:42:00.541Z,13.00
2019-04-16T11:44:50.634Z,12.93
2019-04-16T11:47:40.290Z,13.00
2019-04-16T11:50:23.263Z,11.40
2019-04-16T11:53:12.198Z,13.90
2019-04-16T11:56:01.494Z,12.17
2019-04-16T11:58:51.572Z,13.13
2019-04-16T12:02:02.869Z,11.77
2019-04-16T12:05:14.064Z,11.17
2019-04-16T12:08:33.940Z,11.87
2019-04-16T12:11:28.800Z,10.77
2019-04-16T12:14:32.357Z,12.20
2019-04-16T12:17:22.721Z,11.60
2019-04-16T12:20:29.424Z,10.53
2019-04-16T12:23:30.626Z,10.87
2019-04-16T12:26:38.926Z,10.67
2019-04-16T12:29:45.720Z,10.73
2019-04-16T12:32:52.937Z,12.20
2019-04-16T12:35:51.579Z,12.73
2019-04-16T12:38:56.198Z,13.13
2019-04-16T12:42:04.001Z,13.13
2019-04-16T12:45:14.795Z,14.53
2019-04-16T12:48:18.121Z,14.33
2019-04-16T12:51:16.106Z,13.77
2019-04-16T12:54:28.785Z,14.40
2019-04-16T12:57:49.689Z,15.60
2019-04-16T13:00:44.774Z,15.67
2019-04-16T13:03:46.304Z,14.87
2019-04-16T13:06:43.472Z,15.73
2019-04-16T13:10:00.546Z,16.37
2019-04-16T13:13:01.638Z,14.83
2019-04-16T13:16:11.083Z,15.67
2019-04-16T13:19:17.930Z,15.83
2019-04-16T13:22:07.323Z,17.40
2019-04-16T13:25:13.983Z,18.33
2019-04-16T13:28:03.400Z,17.50
2019-04-16T13:30:53.106Z,16.33
2019-04-16T13:33:43.563Z,17.23
2019-04-16T13:36:33.025Z,18.20
2019-04-16T13:39:40.683Z,18.20
2019-04-16T13:42:30.620Z,17.33
2019-04-16T13:45:40.042Z,16.67
2019-04-16T13:48:48.259Z,16.10
2019-04-16T13:51:37.779Z,13.33
2019-04-16T13:54:45.598Z,13.20
2019-04-16T13:57:35.447Z,13.57
2019-04-16T14:00:46.732Z,14.70
2019-04-16T14:03:35.661Z,14.67
2019-04-16T14:06:24.443Z,12.30
2019-04-16T14:09:13.042Z,12.70
2019-04-16T14:12:02.303Z,11.60
2019-04-16T14:14:51.262Z,11.40
2019-04-16T14:17:52.589Z,12.20
2019-04-16T14:20:31.795Z,13.80
2019-04-16T14:23:21.192Z,13.33
2019-04-16T14:26:10.330Z,12.83
2019-04-16T14:28:59.212Z,12.27
2019-04-16T14:31:49.100Z,13.87
2019-04-16T14:34:52.295Z,13.73
2019-04-16T14:37:37.412Z,13.07
2019-04-16T14:40:27.250Z,12.10
2019-04-16T14:43:19.142Z,12.10
2019-04-16T14:46:09.234Z,12.07
2019-04-16T14:48:59.365Z,12.43
2019-04-16T14:51:49.967Z,12.07
2019-04-16T14:54:53.845Z,11.40
2019-04-16T14:58:07.112Z,13.00
2019-04-16T15:01:15.152Z,12.07
2019-04-16T15:04:35.779Z,13.17
2019-04-16T15:07:44.101Z,12.10
2019-04-16T15:10:50.309Z,12.40
2019-04-16T15:13:48.080Z,12.20
2019-04-16T15:16:56.030Z,13.50
2019-04-16T15:19:53.049Z,12.07
2019-04-16T15:22:54.734Z,11.97
2019-04-16T15:25:53.696Z,11.90
2019-04-16T15:28:58.349Z,11.17
2019-04-16T15:31:57.718Z,11.93
2019-04-16T15:34:48.258Z,12.20
2019-04-16T15:38:05.723Z,12.43
2019-04-16T15:40:56.851Z,10.80
2019-04-16T15:44:11.061Z,11.80
2019-04-16T15:47:19.023Z,10.90
2019-04-16T15:50:35.093Z,11.50
2019-04-16T15:53:31.605Z,11.30
2019-04-16T15:56:42.848Z,12.27
2019-04-16T15:59:38.336Z,10.70
2019-04-16T16:02:49.580Z,10.70
2019-04-16T16:05:43.419Z,11.63
2019-04-16T16:08:37.856Z,11.13
2019-04-16T16:11:33.762Z,9.60
2019-04-16T16:14:22.745Z,10.17
2019-04-16T16:17:12.166Z,11.17
2019-04-16T16:20:01.549Z,9.83
2019-04-16T16:22:50.783Z,9.63
2019-04-16T16:25:41.454Z,9.73
2019-04-16T16:28:30.485Z,8.73
2019-04-16T16:31:19.960Z,8.20
2019-04-16T16:34:09.607Z,7.60
2019-04-16T16:36:59.350Z,7.73
2019-04-16T16:39:49.120Z,8.07
2019-04-16T16:42:19.489Z,8.63
2019-04-16T16:45:09.256Z,8.30
2019-04-16T16:47:58.370Z,7.87
2019-04-16T16:50:51.373Z,7.50
2019-04-16T16:53:49.212Z,7.50
2019-04-16T16:56:41.466Z,6.37
2019-04-16T16:59:30.019Z,6.53
2019-04-16T17:02:25.356Z,7.00
2019-04-16T17:04:56.192Z,6.63
2019-04-16T17:07:26.597Z,6.53
2019-04-16T17:09:58.949Z,7.53
2019-04-16T17:12:29.473Z,7.07
2019-04-16T17:15:00.065Z,6.80
2019-04-16T17:17:49.714Z,6.67
2019-04-16T17:20:19.924Z,7.60
2019-04-16T17:22:50.282Z,5.80
2019-04-16T17:25:35.220Z,5.90
2019-04-16T17:27:53.168Z,5.87
2019-04-16T17:30:23.704Z,6.17
2019-04-16T17:32:54.068Z,5.40
2019-04-16T17:35:24.617Z,6.20
2019-04-16T17:37:54.890Z,5.43
2019-04-16T17:40:34.769Z,5.50
2019-04-16T17:43:14.118Z,4.80
2019-04-16T17:46:06.256Z,4.80
2019-04-16T17:48:58.194Z,4.57
2019-04-16T17:52:05.248Z,4.73
2019-04-16T17:55:11.867Z,4.70
2019-04-16T17:58:15.768Z,4.83
2019-04-16T18:01:35.343Z,5.30
2019-04-16T18:04:37.543Z,4.90
2019-04-16T18:07:44.734Z,4.53
2019-04-16T18:10:52.422Z,4.77
2019-04-16T18:14:04.644Z,3.90
2019-04-16T18:17:07.622Z,4.03
2019-04-16T18:19:56.990Z,3.43
2019-04-16T18:23:05.613Z,3.43
2019-04-16T18:26:12.874Z,3.50
2019-04-16T18:29:05.252Z,3.10
2019-04-16T18:32:12.327Z,3.23
2019-04-16T18:35:26.442Z,3.20
2019-04-16T18:38:40.561Z,2.53
2019-04-16T18:41:43.621Z,2.87
2019-04-16T18:44:38.511Z,3.20
2019-04-16T18:47:45.161Z,2.30
2019-04-16T18:50:35.170Z,2.77
2019-04-16T18:53:24.844Z,2.77
2019-04-16T18:56:14.292Z,2.60
2019-04-16T18:58:45.271Z,2.93
2019-04-16T19:01:35.128Z,2.70
2019-04-16T19:04:24.741Z,2.50
2019-04-16T19:07:14.689Z,2.50
2019-04-16T19:10:04.788Z,2.57
2019-04-16T19:12:53.797Z,2.43
2019-04-16T19:15:43.810Z,2.80
2019-04-16T19:18:33.167Z,2.93
2019-04-16T19:21:22.564Z,2.90
2019-04-16T19:23:53.021Z,3.00
2019-04-16T19:26:42.616Z,3.03
2019-04-16T19:29:32.297Z,3.33
2019-04-16T19:32:21.529Z,3.17
2019-04-16T19:35:14.458Z,3.60
2019-04-16T19:38:02.290Z,3.17
2019-04-16T19:40:52.033Z,3.40
2019-04-16T19:43:42.303Z,3.33
2019-04-16T19:46:31.493Z,3.10
2019-04-16T19:49:21.381Z,3.30
2019-04-16T19:52:14.293Z,3.00
2019-04-16T19:55:02.796Z,3.53
2019-04-16T19:57:56.608Z,3.40
2019-04-16T20:00:43.850Z,3.30
2019-04-16T20:03:33.802Z,3.10
2019-04-16T20:06:26.195Z,3.57
2019-04-16T20:09:14.490Z,3.20
2019-04-16T20:12:03.905Z,2.93
2019-04-16T20:14:53.829Z,3.03
2019-04-16T20:17:43.067Z,2.60
2019-04-16T20:20:32.104Z,3.23
2019-04-16T20:23:21.435Z,2.87
2019-04-16T20:26:10.584Z,3.03
2019-04-16T20:28:59.901Z,3.10
2019-04-16T20:31:49.535Z,3.00
2019-04-16T20:34:39.082Z,2.63
2019-04-16T20:37:28.381Z,3.17
2019-04-16T20:40:18.655Z,3.07
2019-04-16T20:43:07.817Z,3.13
2019-04-16T20:45:57.961Z,3.00
2019-04-16T20:48:46.647Z,3.20
2019-04-16T20:51:36.087Z,3.10
2019-04-16T20:54:06.434Z,3.20
2019-04-16T20:56:55.928Z,2.80
2019-04-16T20:59:45.631Z,3.20
2019-04-16T21:02:35.156Z,3.30
2019-04-16T21:05:25.779Z,3.13
2019-04-16T21:08:16.664Z,3.40
2019-04-16T21:11:09.122Z,3.30
2019-04-16T21:13:56.426Z,3.33
2019-04-16T21:16:45.812Z,3.07
2019-04-16T21:19:47.926Z,3.70
2019-04-16T21:22:37.725Z,3.73
2019-04-16T21:25:27.255Z,3.87
2019-04-16T21:28:44.830Z,3.80
2019-04-16T21:31:38.084Z,4.40
2019-04-16T21:34:48.776Z,3.70
2019-04-16T21:37:47.242Z,3.80
2019-04-16T21:40:35.974Z,4.20
2019-04-16T21:43:25.294Z,4.40
2019-04-16T21:46:20.224Z,4.67
2019-04-16T21:49:07.809Z,4.07
2019-04-16T21:52:08.332Z,4.10
2019-04-16T21:55:03.021Z,4.60
2019-04-16T21:57:48.547Z,4.53
2019-04-16T22:00:55.951Z,4.10
2019-04-16T22:03:48.687Z,5.07
2019-04-16T22:06:37.774Z,5.40
2019-04-16T22:09:26.592Z,4.63
2019-04-16T22:12:16.307Z,5.20
2019-04-16T22:15:06.674Z,5.00
2019-04-16T22:17:56.165Z,5.10
2019-04-16T22:20:46.633Z,5.40
2019-04-16T22:23:29.433Z,5.37
2019-04-16T22:26:18.909Z,4.97
2019-04-16T22:29:08.277Z,5.47
2019-04-16T22:31:58.276Z,4.60
2019-04-16T22:34:47.836Z,5.53
2019-04-16T22:37:36.660Z,5.13
2019-04-16T22:40:32.414Z,5.53
2019-04-16T22:43:42.625Z,5.70
2019-04-16T22:46:36.953Z,5.93
2019-04-16T22:49:26.426Z,6.00
2019-04-16T22:52:15.186Z,6.03
2019-04-16T22:55:04.050Z,5.90
2019-04-16T22:57:53.322Z,5.17
2019-04-16T23:00:45.247Z,5.43
2019-04-16T23:03:34.420Z,5.40
2019-04-16T23:06:23.179Z,4.97
2019-04-16T23:09:16.911Z,5.67
2019-04-16T23:12:04.014Z,5.50
2019-04-16T23:14:34.878Z,5.57
2019-04-16T23:17:26.221Z,4.93
2019-04-16T23:20:28.706Z,5.63
2019-04-16T23:23:05.891Z,5.87
2019-04-16T23:25:59.012Z,5.27
2019-04-16T23:28:45.238Z,5.23
2019-04-16T23:31:34.641Z,5.90
2019-04-16T23:34:23.969Z,4.70
2019-04-16T23:37:13.379Z,5.33
2019-04-16T23:40:02.767Z,6.10
2019-04-16T23:43:06.146Z,5.83
2019-04-16T23:46:06.522Z,5.33
2019-04-16T23:49:19.995Z,5.27
2019-04-16T23:52:20.204Z,5.90
2019-04-16T23:55:40.152Z,6.37
2019-04-16T23:58:47.600Z,5.90
